Aérodrome :
LOGIN :

S'inscrire | Disclaimer

   EN    FR    IT 

 










Légende :    VFR   VFR Marginal   IFR   IFR Intensif   IFR Très Intensif
Visi : 
Plafond : 
>= 8 km
>= 3000ft
5 à 8 km
1000 à 3000 ft
1500m à 5 km
500 à 1000 ft
800 à 1500m
200 à 500 ft
< 800m
< 200 ft
Symboles :   Orages  Brouillard  Fortes neiges  Fortes précipitations  Vent > 20 kt
SIGMETs :   Divers  Orages  Givrage  Turbulence  Onde Orograph.  Cendres Volcan.






- Altitude de l'aérodrome : 266 ft
- Code IATA : NCL


EGNT - Newcastle

DERNIER METAR :
  • 151850Z 22002KT 9999 BKN035 10/10 Q1001

METARs EXPIRÉS :
  • 151820Z 23003KT 9999 FEW029 BKN035 11/10 Q1001
  • 151750Z 21003KT 9999 FEW029 BKN037 11/10 Q1001
  • 151720Z 22003KT 9999 FEW025 BKN035 11/10 Q1001
  • 151650Z VRB03KT 9999 FEW010 BKN034 11/10 Q1001
  • 151620Z 21001KT 9999 BKN033 11/10 Q1001

TAF TAF EGNT
Valide du 15 à 18h jusqu'au 16 à 18h UTC


151655Z 1518/1618 22004KT 9999 SCT025
PROB30
TEMPO 1600/1604 8000 BKN004
BECMG 1604/1607 16010KT BKN008
TEMPO 1607/1611 6000 RA
PROB30
TEMPO 1608/1611 4000 +RA BKN004
BECMG 1611/1614 27010KT
ATIS : +44 191 214 3400



MET'MAP, la Météo Aéronautique d'un coup d'oeil ! - Copyright ORBIFLY Décembre 2007 - Disclaimer

ORBIFLY MET'MAP TEAM :

Programmation & Développement : Alexandra Zaïnal
Conception & Développement : Baudouin d'Aumeries
Co-Programmation & Développement : Marc-Olivier Méhu
Soutien technique & logistique : Manuel Goepfert

Contact : metmap@orbifly.com




SOURCES & CREDITS :

   NOAA